sensor_id;sensor_type;location;lat;lon;timestamp;P1;durP1;ratioP1;P2;durP2;ratioP2
17153;SDS011;8692;52.164;7.558;2023-09-30T00:01:54;8.20;;;3.47;;
17153;SDS011;8692;52.164;7.558;2023-09-30T00:04:24;6.37;;;3.17;;
17153;SDS011;8692;52.164;7.558;2023-09-30T00:06:53;6.90;;;3.20;;
17153;SDS011;8692;52.164;7.558;2023-09-30T00:09:21;5.77;;;3.10;;
17153;SDS011;8692;52.164;7.558;2023-09-30T00:11:49;3.90;;;2.33;;
17153;SDS011;8692;52.164;7.558;2023-09-30T00:14:17;6.30;;;3.50;;
17153;SDS011;8692;52.164;7.558;2023-09-30T00:16:45;5.80;;;2.87;;
17153;SDS011;8692;52.164;7.558;2023-09-30T00:19:13;4.90;;;2.70;;
17153;SDS011;8692;52.164;7.558;2023-09-30T00:21:43;7.10;;;3.20;;
17153;SDS011;8692;52.164;7.558;2023-09-30T00:24:11;6.40;;;2.90;;
17153;SDS011;8692;52.164;7.558;2023-09-30T00:26:39;6.53;;;2.80;;
17153;SDS011;8692;52.164;7.558;2023-09-30T00:29:08;6.97;;;2.67;;
17153;SDS011;8692;52.164;7.558;2023-09-30T00:31:36;5.73;;;2.33;;
17153;SDS011;8692;52.164;7.558;2023-09-30T00:34:04;4.13;;;2.73;;
17153;SDS011;8692;52.164;7.558;2023-09-30T00:36:32;7.13;;;2.70;;
17153;SDS011;8692;52.164;7.558;2023-09-30T00:39:02;8.20;;;3.03;;
17153;SDS011;8692;52.164;7.558;2023-09-30T00:41:30;6.77;;;2.90;;
17153;SDS011;8692;52.164;7.558;2023-09-30T00:43:58;6.70;;;3.53;;
17153;SDS011;8692;52.164;7.558;2023-09-30T00:46:26;5.10;;;2.80;;
17153;SDS011;8692;52.164;7.558;2023-09-30T00:48:58;4.80;;;2.80;;
17153;SDS011;8692;52.164;7.558;2023-09-30T00:51:27;5.70;;;2.77;;
17153;SDS011;8692;52.164;7.558;2023-09-30T00:53:57;9.50;;;3.17;;
17153;SDS011;8692;52.164;7.558;2023-09-30T00:56:29;3.87;;;2.80;;
17153;SDS011;8692;52.164;7.558;2023-09-30T00:58:58;8.93;;;3.27;;
17153;SDS011;8692;52.164;7.558;2023-09-30T01:01:27;7.23;;;3.30;;
17153;SDS011;8692;52.164;7.558;2023-09-30T01:03:55;7.10;;;3.43;;
17153;SDS011;8692;52.164;7.558;2023-09-30T01:06:25;7.73;;;2.97;;
17153;SDS011;8692;52.164;7.558;2023-09-30T01:08:54;7.03;;;3.20;;
17153;SDS011;8692;52.164;7.558;2023-09-30T01:11:22;5.80;;;3.10;;
17153;SDS011;8692;52.164;7.558;2023-09-30T01:13:51;5.10;;;2.63;;
17153;SDS011;8692;52.164;7.558;2023-09-30T01:16:19;6.33;;;2.70;;
17153;SDS011;8692;52.164;7.558;2023-09-30T01:18:47;5.17;;;3.10;;
17153;SDS011;8692;52.164;7.558;2023-09-30T01:21:16;6.93;;;3.13;;
17153;SDS011;8692;52.164;7.558;2023-09-30T01:23:47;4.57;;;2.50;;
17153;SDS011;8692;52.164;7.558;2023-09-30T01:26:15;7.47;;;3.10;;
17153;SDS011;8692;52.164;7.558;2023-09-30T01:28:43;8.80;;;3.10;;
17153;SDS011;8692;52.164;7.558;2023-09-30T01:31:15;6.70;;;3.30;;
17153;SDS011;8692;52.164;7.558;2023-09-30T01:33:43;6.93;;;3.30;;
17153;SDS011;8692;52.164;7.558;2023-09-30T01:36:11;5.00;;;2.80;;
17153;SDS011;8692;52.164;7.558;2023-09-30T01:38:39;4.90;;;3.07;;
17153;SDS011;8692;52.164;7.558;2023-09-30T01:41:08;5.67;;;3.00;;
17153;SDS011;8692;52.164;7.558;2023-09-30T01:43:36;7.07;;;2.63;;
17153;SDS011;8692;52.164;7.558;2023-09-30T01:46:04;4.53;;;2.60;;
17153;SDS011;8692;52.164;7.558;2023-09-30T01:48:32;7.17;;;3.70;;
17153;SDS011;8692;52.164;7.558;2023-09-30T01:51:01;4.40;;;2.43;;
17153;SDS011;8692;52.164;7.558;2023-09-30T01:53:29;6.60;;;3.63;;
17153;SDS011;8692;52.164;7.558;2023-09-30T01:55:57;7.93;;;3.00;;
17153;SDS011;8692;52.164;7.558;2023-09-30T01:58:27;5.73;;;3.10;;
17153;SDS011;8692;52.164;7.558;2023-09-30T02:01:01;8.03;;;3.53;;
17153;SDS011;8692;52.164;7.558;2023-09-30T02:03:30;8.00;;;3.00;;
17153;SDS011;8692;52.164;7.558;2023-09-30T02:05:58;6.90;;;3.20;;
17153;SDS011;8692;52.164;7.558;2023-09-30T02:08:26;8.47;;;3.23;;
17153;SDS011;8692;52.164;7.558;2023-09-30T02:10:54;7.13;;;3.23;;
17153;SDS011;8692;52.164;7.558;2023-09-30T02:13:22;6.90;;;3.27;;
17153;SDS011;8692;52.164;7.558;2023-09-30T02:15:52;6.80;;;3.10;;
17153;SDS011;8692;52.164;7.558;2023-09-30T02:18:21;7.73;;;3.50;;
17153;SDS011;8692;52.164;7.558;2023-09-30T02:20:50;9.47;;;3.87;;
17153;SDS011;8692;52.164;7.558;2023-09-30T02:23:19;6.63;;;3.47;;
17153;SDS011;8692;52.164;7.558;2023-09-30T02:25:47;7.23;;;3.73;;
17153;SDS011;8692;52.164;7.558;2023-09-30T02:28:15;7.67;;;4.40;;
17153;SDS011;8692;52.164;7.558;2023-09-30T02:30:44;8.30;;;3.77;;
17153;SDS011;8692;52.164;7.558;2023-09-30T02:33:13;7.27;;;3.60;;
17153;SDS011;8692;52.164;7.558;2023-09-30T02:35:43;5.40;;;3.17;;
17153;SDS011;8692;52.164;7.558;2023-09-30T02:38:11;9.30;;;4.53;;
17153;SDS011;8692;52.164;7.558;2023-09-30T02:40:42;7.47;;;3.93;;
17153;SDS011;8692;52.164;7.558;2023-09-30T02:43:12;6.43;;;3.43;;
17153;SDS011;8692;52.164;7.558;2023-09-30T02:45:40;6.17;;;2.93;;
17153;SDS011;8692;52.164;7.558;2023-09-30T02:48:09;6.97;;;3.43;;
17153;SDS011;8692;52.164;7.558;2023-09-30T02:50:38;7.57;;;3.93;;
17153;SDS011;8692;52.164;7.558;2023-09-30T02:53:10;7.83;;;3.63;;
17153;SDS011;8692;52.164;7.558;2023-09-30T02:55:39;7.67;;;3.60;;
17153;SDS011;8692;52.164;7.558;2023-09-30T02:58:09;7.60;;;3.90;;
17153;SDS011;8692;52.164;7.558;2023-09-30T03:00:38;5.73;;;2.83;;
17153;SDS011;8692;52.164;7.558;2023-09-30T03:03:06;7.73;;;3.37;;
17153;SDS011;8692;52.164;7.558;2023-09-30T03:05:35;5.17;;;2.93;;
17153;SDS011;8692;52.164;7.558;2023-09-30T03:08:05;9.80;;;3.43;;
17153;SDS011;8692;52.164;7.558;2023-09-30T03:10:33;4.67;;;3.13;;
17153;SDS011;8692;52.164;7.558;2023-09-30T03:13:06;8.83;;;3.70;;
17153;SDS011;8692;52.164;7.558;2023-09-30T03:15:35;6.53;;;3.13;;
17153;SDS011;8692;52.164;7.558;2023-09-30T03:18:03;5.60;;;2.97;;
17153;SDS011;8692;52.164;7.558;2023-09-30T03:20:32;4.67;;;2.73;;
17153;SDS011;8692;52.164;7.558;2023-09-30T03:23:00;6.00;;;3.40;;
17153;SDS011;8692;52.164;7.558;2023-09-30T03:25:32;6.47;;;3.30;;
17153;SDS011;8692;52.164;7.558;2023-09-30T03:28:00;4.80;;;3.03;;
17153;SDS011;8692;52.164;7.558;2023-09-30T03:30:28;5.73;;;2.97;;
17153;SDS011;8692;52.164;7.558;2023-09-30T03:32:56;7.27;;;2.80;;
17153;SDS011;8692;52.164;7.558;2023-09-30T03:35:24;7.87;;;4.10;;
17153;SDS011;8692;52.164;7.558;2023-09-30T03:37:52;7.67;;;3.50;;
17153;SDS011;8692;52.164;7.558;2023-09-30T03:40:20;6.03;;;3.10;;
17153;SDS011;8692;52.164;7.558;2023-09-30T03:43:01;7.63;;;3.00;;
17153;SDS011;8692;52.164;7.558;2023-09-30T03:45:29;6.60;;;3.33;;
17153;SDS011;8692;52.164;7.558;2023-09-30T03:47:59;6.60;;;3.27;;
17153;SDS011;8692;52.164;7.558;2023-09-30T03:50:29;5.80;;;2.90;;
17153;SDS011;8692;52.164;7.558;2023-09-30T03:53:00;7.03;;;2.93;;
17153;SDS011;8692;52.164;7.558;2023-09-30T03:55:29;3.43;;;2.77;;
17153;SDS011;8692;52.164;7.558;2023-09-30T03:57:58;5.70;;;2.73;;
17153;SDS011;8692;52.164;7.558;2023-09-30T04:00:27;5.57;;;3.43;;
17153;SDS011;8692;52.164;7.558;2023-09-30T04:02:55;5.93;;;2.70;;
17153;SDS011;8692;52.164;7.558;2023-09-30T04:05:25;3.97;;;2.97;;
17153;SDS011;8692;52.164;7.558;2023-09-30T04:07:56;4.77;;;2.73;;
17153;SDS011;8692;52.164;7.558;2023-09-30T04:10:24;5.60;;;3.00;;
17153;SDS011;8692;52.164;7.558;2023-09-30T04:12:53;3.33;;;2.47;;
17153;SDS011;8692;52.164;7.558;2023-09-30T04:15:22;4.80;;;3.03;;
17153;SDS011;8692;52.164;7.558;2023-09-30T04:17:52;6.40;;;3.00;;
17153;SDS011;8692;52.164;7.558;2023-09-30T04:20:20;6.60;;;3.33;;
17153;SDS011;8692;52.164;7.558;2023-09-30T04:22:50;6.07;;;3.30;;
17153;SDS011;8692;52.164;7.558;2023-09-30T04:25:23;5.87;;;3.30;;
17153;SDS011;8692;52.164;7.558;2023-09-30T04:27:52;4.73;;;2.93;;
17153;SDS011;8692;52.164;7.558;2023-09-30T04:30:21;5.93;;;3.57;;
17153;SDS011;8692;52.164;7.558;2023-09-30T04:32:49;3.50;;;2.37;;
17153;SDS011;8692;52.164;7.558;2023-09-30T04:35:19;9.97;;;3.43;;
17153;SDS011;8692;52.164;7.558;2023-09-30T04:37:48;5.40;;;3.30;;
17153;SDS011;8692;52.164;7.558;2023-09-30T04:40:16;6.93;;;3.70;;
17153;SDS011;8692;52.164;7.558;2023-09-30T04:42:47;6.60;;;2.73;;
17153;SDS011;8692;52.164;7.558;2023-09-30T04:45:16;5.80;;;3.60;;
17153;SDS011;8692;52.164;7.558;2023-09-30T04:47:47;7.97;;;3.47;;
17153;SDS011;8692;52.164;7.558;2023-09-30T04:50:18;4.70;;;3.37;;
17153;SDS011;8692;52.164;7.558;2023-09-30T04:52:49;4.00;;;2.80;;
17153;SDS011;8692;52.164;7.558;2023-09-30T04:55:18;4.23;;;2.80;;
17153;SDS011;8692;52.164;7.558;2023-09-30T04:57:47;4.33;;;2.73;;
17153;SDS011;8692;52.164;7.558;2023-09-30T05:00:18;5.17;;;2.57;;
17153;SDS011;8692;52.164;7.558;2023-09-30T05:02:52;3.47;;;2.73;;
17153;SDS011;8692;52.164;7.558;2023-09-30T05:05:29;5.37;;;2.97;;
17153;SDS011;8692;52.164;7.558;2023-09-30T05:07:57;4.57;;;2.73;;
17153;SDS011;8692;52.164;7.558;2023-09-30T05:10:27;5.37;;;3.00;;
17153;SDS011;8692;52.164;7.558;2023-09-30T05:12:56;3.80;;;2.70;;
17153;SDS011;8692;52.164;7.558;2023-09-30T05:15:24;4.20;;;2.30;;
17153;SDS011;8692;52.164;7.558;2023-09-30T05:17:52;5.33;;;2.97;;
17153;SDS011;8692;52.164;7.558;2023-09-30T05:20:20;5.13;;;2.73;;
17153;SDS011;8692;52.164;7.558;2023-09-30T05:22:50;5.90;;;3.37;;
17153;SDS011;8692;52.164;7.558;2023-09-30T05:25:19;5.60;;;3.37;;
17153;SDS011;8692;52.164;7.558;2023-09-30T05:27:52;4.23;;;2.80;;
17153;SDS011;8692;52.164;7.558;2023-09-30T05:30:20;6.57;;;3.07;;
17153;SDS011;8692;52.164;7.558;2023-09-30T05:32:49;5.23;;;2.70;;
17153;SDS011;8692;52.164;7.558;2023-09-30T05:35:19;3.67;;;2.73;;
17153;SDS011;8692;52.164;7.558;2023-09-30T05:37:50;5.07;;;2.70;;
17153;SDS011;8692;52.164;7.558;2023-09-30T05:40:19;7.63;;;3.50;;
17153;SDS011;8692;52.164;7.558;2023-09-30T05:42:52;4.87;;;3.13;;
17153;SDS011;8692;52.164;7.558;2023-09-30T05:45:21;4.33;;;2.67;;
17153;SDS011;8692;52.164;7.558;2023-09-30T05:47:53;6.03;;;3.10;;
17153;SDS011;8692;52.164;7.558;2023-09-30T05:50:23;6.53;;;3.13;;
17153;SDS011;8692;52.164;7.558;2023-09-30T05:52:55;6.07;;;3.17;;
17153;SDS011;8692;52.164;7.558;2023-09-30T05:55:23;5.23;;;2.50;;
17153;SDS011;8692;52.164;7.558;2023-09-30T05:57:53;6.70;;;2.83;;
17153;SDS011;8692;52.164;7.558;2023-09-30T06:00:22;4.43;;;2.67;;
17153;SDS011;8692;52.164;7.558;2023-09-30T06:02:54;3.10;;;2.40;;
17153;SDS011;8692;52.164;7.558;2023-09-30T06:05:22;4.20;;;2.47;;
17153;SDS011;8692;52.164;7.558;2023-09-30T06:07:52;7.13;;;2.83;;
17153;SDS011;8692;52.164;7.558;2023-09-30T06:10:22;3.70;;;2.40;;
17153;SDS011;8692;52.164;7.558;2023-09-30T06:12:52;4.43;;;2.83;;
17153;SDS011;8692;52.164;7.558;2023-09-30T06:15:22;4.03;;;2.70;;
17153;SDS011;8692;52.164;7.558;2023-09-30T06:17:53;3.43;;;2.23;;
17153;SDS011;8692;52.164;7.558;2023-09-30T06:20:21;3.47;;;2.20;;
17153;SDS011;8692;52.164;7.558;2023-09-30T06:22:53;3.37;;;2.70;;
17153;SDS011;8692;52.164;7.558;2023-09-30T06:25:23;4.27;;;2.70;;
17153;SDS011;8692;52.164;7.558;2023-09-30T06:27:51;5.50;;;2.77;;
17153;SDS011;8692;52.164;7.558;2023-09-30T06:30:21;3.57;;;2.70;;
17153;SDS011;8692;52.164;7.558;2023-09-30T06:32:56;4.17;;;2.40;;
17153;SDS011;8692;52.164;7.558;2023-09-30T06:35:26;6.23;;;3.33;;
17153;SDS011;8692;52.164;7.558;2023-09-30T06:37:56;3.40;;;2.77;;
17153;SDS011;8692;52.164;7.558;2023-09-30T06:40:25;4.20;;;2.73;;
17153;SDS011;8692;52.164;7.558;2023-09-30T06:42:53;6.07;;;3.80;;
17153;SDS011;8692;52.164;7.558;2023-09-30T06:45:21;6.10;;;3.23;;
17153;SDS011;8692;52.164;7.558;2023-09-30T06:47:50;6.87;;;3.87;;
17153;SDS011;8692;52.164;7.558;2023-09-30T06:50:18;7.00;;;3.67;;
17153;SDS011;8692;52.164;7.558;2023-09-30T06:52:48;8.33;;;4.23;;
17153;SDS011;8692;52.164;7.558;2023-09-30T06:55:17;9.47;;;4.33;;
17153;SDS011;8692;52.164;7.558;2023-09-30T06:57:46;9.17;;;5.10;;
17153;SDS011;8692;52.164;7.558;2023-09-30T07:00:14;5.53;;;4.53;;
17153;SDS011;8692;52.164;7.558;2023-09-30T07:02:43;6.00;;;3.43;;
17153;SDS011;8692;52.164;7.558;2023-09-30T07:05:11;7.67;;;4.00;;
17153;SDS011;8692;52.164;7.558;2023-09-30T07:07:40;8.90;;;4.00;;
17153;SDS011;8692;52.164;7.558;2023-09-30T07:10:10;11.00;;;6.60;;
17153;SDS011;8692;52.164;7.558;2023-09-30T07:12:38;15.43;;;6.63;;
17153;SDS011;8692;52.164;7.558;2023-09-30T07:15:10;10.17;;;5.40;;
17153;SDS011;8692;52.164;7.558;2023-09-30T07:17:38;7.93;;;5.70;;
17153;SDS011;8692;52.164;7.558;2023-09-30T07:20:11;12.27;;;6.80;;
17153;SDS011;8692;52.164;7.558;2023-09-30T07:22:39;9.83;;;6.50;;
17153;SDS011;8692;52.164;7.558;2023-09-30T07:25:21;10.77;;;6.80;;
17153;SDS011;8692;52.164;7.558;2023-09-30T07:27:49;10.03;;;6.90;;
17153;SDS011;8692;52.164;7.558;2023-09-30T07:30:20;8.80;;;6.97;;
17153;SDS011;8692;52.164;7.558;2023-09-30T07:32:48;9.27;;;6.57;;
17153;SDS011;8692;52.164;7.558;2023-09-30T07:35:16;9.13;;;5.90;;
17153;SDS011;8692;52.164;7.558;2023-09-30T07:37:44;12.80;;;7.03;;
17153;SDS011;8692;52.164;7.558;2023-09-30T07:40:12;9.53;;;6.70;;
17153;SDS011;8692;52.164;7.558;2023-09-30T07:42:41;11.90;;;6.90;;
17153;SDS011;8692;52.164;7.558;2023-09-30T07:45:09;10.77;;;7.90;;
17153;SDS011;8692;52.164;7.558;2023-09-30T07:47:44;12.93;;;7.13;;
17153;SDS011;8692;52.164;7.558;2023-09-30T07:50:13;13.27;;;7.23;;
17153;SDS011;8692;52.164;7.558;2023-09-30T07:52:41;10.27;;;7.23;;
17153;SDS011;8692;52.164;7.558;2023-09-30T07:55:10;11.50;;;7.50;;
17153;SDS011;8692;52.164;7.558;2023-09-30T07:57:39;14.10;;;8.23;;
17153;SDS011;8692;52.164;7.558;2023-09-30T08:00:09;15.57;;;8.60;;
17153;SDS011;8692;52.164;7.558;2023-09-30T08:02:42;15.47;;;8.23;;
17153;SDS011;8692;52.164;7.558;2023-09-30T08:05:12;11.97;;;7.23;;
17153;SDS011;8692;52.164;7.558;2023-09-30T08:07:40;16.17;;;8.27;;
17153;SDS011;8692;52.164;7.558;2023-09-30T08:10:09;12.30;;;7.20;;
17153;SDS011;8692;52.164;7.558;2023-09-30T08:12:40;11.63;;;7.53;;
17153;SDS011;8692;52.164;7.558;2023-09-30T08:15:09;8.73;;;7.20;;
17153;SDS011;8692;52.164;7.558;2023-09-30T08:17:39;13.03;;;7.07;;
17153;SDS011;8692;52.164;7.558;2023-09-30T08:20:07;9.47;;;6.80;;
17153;SDS011;8692;52.164;7.558;2023-09-30T08:22:37;10.80;;;6.33;;
17153;SDS011;8692;52.164;7.558;2023-09-30T08:25:06;9.97;;;6.53;;
17153;SDS011;8692;52.164;7.558;2023-09-30T08:27:36;12.47;;;7.17;;
17153;SDS011;8692;52.164;7.558;2023-09-30T08:30:04;9.53;;;6.27;;
17153;SDS011;8692;52.164;7.558;2023-09-30T08:32:34;10.37;;;6.23;;
17153;SDS011;8692;52.164;7.558;2023-09-30T08:35:03;9.20;;;6.10;;
17153;SDS011;8692;52.164;7.558;2023-09-30T08:37:32;9.23;;;6.03;;
17153;SDS011;8692;52.164;7.558;2023-09-30T08:40:01;13.20;;;6.13;;
17153;SDS011;8692;52.164;7.558;2023-09-30T08:42:31;9.37;;;6.27;;
17153;SDS011;8692;52.164;7.558;2023-09-30T08:45:01;11.03;;;6.30;;
17153;SDS011;8692;52.164;7.558;2023-09-30T08:47:33;12.40;;;6.17;;
17153;SDS011;8692;52.164;7.558;2023-09-30T08:50:01;8.47;;;5.23;;
17153;SDS011;8692;52.164;7.558;2023-09-30T08:52:33;9.70;;;5.63;;
17153;SDS011;8692;52.164;7.558;2023-09-30T08:55:08;10.03;;;5.57;;
17153;SDS011;8692;52.164;7.558;2023-09-30T08:57:37;11.40;;;6.27;;
17153;SDS011;8692;52.164;7.558;2023-09-30T09:00:07;8.57;;;5.37;;
17153;SDS011;8692;52.164;7.558;2023-09-30T09:02:40;13.30;;;6.87;;
17153;SDS011;8692;52.164;7.558;2023-09-30T09:05:09;9.10;;;6.10;;
17153;SDS011;8692;52.164;7.558;2023-09-30T09:07:38;20.17;;;7.23;;
17153;SDS011;8692;52.164;7.558;2023-09-30T09:10:09;9.20;;;5.30;;
17153;SDS011;8692;52.164;7.558;2023-09-30T09:12:40;11.50;;;5.80;;
17153;SDS011;8692;52.164;7.558;2023-09-30T09:15:19;10.90;;;5.73;;
17153;SDS011;8692;52.164;7.558;2023-09-30T09:17:49;14.40;;;6.13;;
17153;SDS011;8692;52.164;7.558;2023-09-30T09:20:18;7.77;;;5.40;;
17153;SDS011;8692;52.164;7.558;2023-09-30T09:22:48;8.43;;;6.10;;
17153;SDS011;8692;52.164;7.558;2023-09-30T09:25:21;12.10;;;5.90;;
17153;SDS011;8692;52.164;7.558;2023-09-30T09:27:50;12.47;;;5.87;;
17153;SDS011;8692;52.164;7.558;2023-09-30T09:30:21;7.20;;;5.03;;
17153;SDS011;8692;52.164;7.558;2023-09-30T09:32:53;9.17;;;5.17;;
17153;SDS011;8692;52.164;7.558;2023-09-30T09:35:27;11.17;;;5.30;;
17153;SDS011;8692;52.164;7.558;2023-09-30T09:37:57;14.73;;;5.33;;
17153;SDS011;8692;52.164;7.558;2023-09-30T09:40:28;9.07;;;6.10;;
17153;SDS011;8692;52.164;7.558;2023-09-30T09:42:57;10.13;;;5.37;;
17153;SDS011;8692;52.164;7.558;2023-09-30T09:45:28;7.87;;;5.20;;
17153;SDS011;8692;52.164;7.558;2023-09-30T09:47:59;9.67;;;4.97;;
17153;SDS011;8692;52.164;7.558;2023-09-30T09:50:28;7.67;;;4.90;;
17153;SDS011;8692;52.164;7.558;2023-09-30T09:52:58;11.13;;;6.00;;
17153;SDS011;8692;52.164;7.558;2023-09-30T09:55:28;10.83;;;5.83;;
17153;SDS011;8692;52.164;7.558;2023-09-30T09:57:56;8.13;;;5.30;;
17153;SDS011;8692;52.164;7.558;2023-09-30T10:00:26;9.27;;;5.47;;
17153;SDS011;8692;52.164;7.558;2023-09-30T10:02:56;10.00;;;4.93;;
17153;SDS011;8692;52.164;7.558;2023-09-30T10:05:25;10.93;;;5.07;;
17153;SDS011;8692;52.164;7.558;2023-09-30T10:07:55;9.53;;;5.43;;
17153;SDS011;8692;52.164;7.558;2023-09-30T10:10:29;8.03;;;5.50;;
17153;SDS011;8692;52.164;7.558;2023-09-30T10:13:02;10.80;;;5.73;;
17153;SDS011;8692;52.164;7.558;2023-09-30T10:15:38;9.37;;;4.73;;
17153;SDS011;8692;52.164;7.558;2023-09-30T10:18:08;9.77;;;5.20;;
17153;SDS011;8692;52.164;7.558;2023-09-30T10:20:41;7.30;;;4.70;;
17153;SDS011;8692;52.164;7.558;2023-09-30T10:23:18;10.43;;;4.83;;
17153;SDS011;8692;52.164;7.558;2023-09-30T10:25:53;10.23;;;4.60;;
17153;SDS011;8692;52.164;7.558;2023-09-30T10:28:34;8.50;;;4.87;;
17153;SDS011;8692;52.164;7.558;2023-09-30T10:31:09;9.50;;;4.40;;
17153;SDS011;8692;52.164;7.558;2023-09-30T10:36:45;7.00;;;4.10;;
17153;SDS011;8692;52.164;7.558;2023-09-30T10:39:14;8.07;;;3.93;;
17153;SDS011;8692;52.164;7.558;2023-09-30T10:41:52;7.90;;;4.20;;
17153;SDS011;8692;52.164;7.558;2023-09-30T10:44:32;8.63;;;3.90;;
17153;SDS011;8692;52.164;7.558;2023-09-30T10:47:00;6.90;;;3.47;;
17153;SDS011;8692;52.164;7.558;2023-09-30T10:50:04;10.60;;;3.90;;
17153;SDS011;8692;52.164;7.558;2023-09-30T10:53:07;7.00;;;3.47;;
17153;SDS011;8692;52.164;7.558;2023-09-30T10:55:36;6.20;;;3.57;;
17153;SDS011;8692;52.164;7.558;2023-09-30T10:58:06;10.50;;;4.17;;
17153;SDS011;8692;52.164;7.558;2023-09-30T11:00:34;8.57;;;3.40;;
17153;SDS011;8692;52.164;7.558;2023-09-30T11:03:02;6.57;;;3.50;;
17153;SDS011;8692;52.164;7.558;2023-09-30T11:05:32;7.47;;;2.80;;
17153;SDS011;8692;52.164;7.558;2023-09-30T11:08:21;6.90;;;3.70;;
17153;SDS011;8692;52.164;7.558;2023-09-30T11:10:49;10.67;;;4.10;;
17153;SDS011;8692;52.164;7.558;2023-09-30T11:13:19;8.13;;;3.57;;
17153;SDS011;8692;52.164;7.558;2023-09-30T11:15:48;8.53;;;3.47;;
17153;SDS011;8692;52.164;7.558;2023-09-30T11:18:27;9.07;;;3.30;;
17153;SDS011;8692;52.164;7.558;2023-09-30T11:21:03;7.63;;;3.30;;
17153;SDS011;8692;52.164;7.558;2023-09-30T11:23:32;7.33;;;3.27;;
17153;SDS011;8692;52.164;7.558;2023-09-30T11:26:00;8.80;;;3.33;;
17153;SDS011;8692;52.164;7.558;2023-09-30T11:28:37;7.63;;;2.93;;
17153;SDS011;8692;52.164;7.558;2023-09-30T11:31:07;8.90;;;3.27;;
17153;SDS011;8692;52.164;7.558;2023-09-30T11:33:47;6.93;;;3.13;;
17153;SDS011;8692;52.164;7.558;2023-09-30T11:36:18;7.27;;;3.30;;
17153;SDS011;8692;52.164;7.558;2023-09-30T11:38:48;8.27;;;3.40;;
17153;SDS011;8692;52.164;7.558;2023-09-30T11:41:19;6.60;;;3.13;;
17153;SDS011;8692;52.164;7.558;2023-09-30T11:43:59;5.30;;;2.93;;
17153;SDS011;8692;52.164;7.558;2023-09-30T11:46:31;6.70;;;3.27;;
17153;SDS011;8692;52.164;7.558;2023-09-30T11:49:00;8.77;;;2.47;;
17153;SDS011;8692;52.164;7.558;2023-09-30T11:51:42;4.90;;;2.63;;
17153;SDS011;8692;52.164;7.558;2023-09-30T11:54:13;6.10;;;2.80;;
17153;SDS011;8692;52.164;7.558;2023-09-30T11:56:42;4.60;;;2.43;;
17153;SDS011;8692;52.164;7.558;2023-09-30T11:59:12;8.40;;;3.20;;
17153;SDS011;8692;52.164;7.558;2023-09-30T12:01:41;9.10;;;3.17;;
17153;SDS011;8692;52.164;7.558;2023-09-30T12:04:14;8.70;;;3.27;;
17153;SDS011;8692;52.164;7.558;2023-09-30T12:06:43;5.90;;;2.30;;
17153;SDS011;8692;52.164;7.558;2023-09-30T12:09:12;5.40;;;2.57;;
17153;SDS011;8692;52.164;7.558;2023-09-30T12:11:41;4.90;;;2.40;;
17153;SDS011;8692;52.164;7.558;2023-09-30T12:14:10;6.27;;;2.87;;
17153;SDS011;8692;52.164;7.558;2023-09-30T12:16:40;6.10;;;2.67;;
17153;SDS011;8692;52.164;7.558;2023-09-30T12:19:10;7.27;;;2.90;;
17153;SDS011;8692;52.164;7.558;2023-09-30T12:21:39;4.07;;;2.33;;
17153;SDS011;8692;52.164;7.558;2023-09-30T12:24:08;5.00;;;3.03;;
17153;SDS011;8692;52.164;7.558;2023-09-30T12:26:37;5.40;;;2.87;;
17153;SDS011;8692;52.164;7.558;2023-09-30T12:29:07;6.03;;;3.13;;
17153;SDS011;8692;52.164;7.558;2023-09-30T12:31:37;4.37;;;2.80;;
17153;SDS011;8692;52.164;7.558;2023-09-30T12:34:18;5.87;;;2.70;;
17153;SDS011;8692;52.164;7.558;2023-09-30T12:36:46;5.57;;;2.70;;
17153;SDS011;8692;52.164;7.558;2023-09-30T12:39:14;4.43;;;2.23;;
17153;SDS011;8692;52.164;7.558;2023-09-30T12:41:44;4.43;;;1.97;;
17153;SDS011;8692;52.164;7.558;2023-09-30T12:44:12;6.00;;;2.47;;
17153;SDS011;8692;52.164;7.558;2023-09-30T12:46:42;5.57;;;2.80;;
17153;SDS011;8692;52.164;7.558;2023-09-30T12:49:10;7.43;;;2.83;;
17153;SDS011;8692;52.164;7.558;2023-09-30T12:51:39;5.50;;;2.50;;
17153;SDS011;8692;52.164;7.558;2023-09-30T12:54:07;6.47;;;2.77;;
17153;SDS011;8692;52.164;7.558;2023-09-30T12:56:35;6.07;;;2.97;;
17153;SDS011;8692;52.164;7.558;2023-09-30T12:59:03;7.03;;;2.83;;
17153;SDS011;8692;52.164;7.558;2023-09-30T13:01:31;4.07;;;2.43;;
17153;SDS011;8692;52.164;7.558;2023-09-30T13:04:03;8.27;;;2.67;;
17153;SDS011;8692;52.164;7.558;2023-09-30T13:06:34;6.97;;;2.77;;
17153;SDS011;8692;52.164;7.558;2023-09-30T13:09:03;5.33;;;2.47;;
17153;SDS011;8692;52.164;7.558;2023-09-30T13:11:31;9.23;;;2.90;;
17153;SDS011;8692;52.164;7.558;2023-09-30T13:14:03;4.73;;;2.57;;
17153;SDS011;8692;52.164;7.558;2023-09-30T13:16:31;7.30;;;2.97;;
17153;SDS011;8692;52.164;7.558;2023-09-30T13:19:00;4.73;;;2.10;;
17153;SDS011;8692;52.164;7.558;2023-09-30T13:21:30;4.63;;;2.60;;
17153;SDS011;8692;52.164;7.558;2023-09-30T13:23:58;8.23;;;2.73;;
17153;SDS011;8692;52.164;7.558;2023-09-30T13:26:26;5.27;;;2.87;;
17153;SDS011;8692;52.164;7.558;2023-09-30T13:28:56;4.10;;;2.57;;
17153;SDS011;8692;52.164;7.558;2023-09-30T13:31:25;6.13;;;3.00;;
17153;SDS011;8692;52.164;7.558;2023-09-30T13:33:53;8.53;;;3.10;;
17153;SDS011;8692;52.164;7.558;2023-09-30T13:36:21;5.60;;;3.00;;
17153;SDS011;8692;52.164;7.558;2023-09-30T13:38:50;6.07;;;3.03;;
17153;SDS011;8692;52.164;7.558;2023-09-30T13:41:19;6.33;;;2.70;;
17153;SDS011;8692;52.164;7.558;2023-09-30T13:43:47;6.63;;;3.10;;
17153;SDS011;8692;52.164;7.558;2023-09-30T13:46:15;5.17;;;2.80;;
17153;SDS011;8692;52.164;7.558;2023-09-30T13:48:43;5.73;;;2.37;;
17153;SDS011;8692;52.164;7.558;2023-09-30T13:51:11;6.27;;;3.07;;
17153;SDS011;8692;52.164;7.558;2023-09-30T13:53:39;5.53;;;2.17;;
17153;SDS011;8692;52.164;7.558;2023-09-30T13:56:10;4.97;;;2.83;;
17153;SDS011;8692;52.164;7.558;2023-09-30T13:58:38;7.37;;;3.03;;
17153;SDS011;8692;52.164;7.558;2023-09-30T14:01:08;7.57;;;3.43;;
17153;SDS011;8692;52.164;7.558;2023-09-30T14:03:37;5.50;;;2.67;;
17153;SDS011;8692;52.164;7.558;2023-09-30T14:06:09;4.87;;;2.40;;
17153;SDS011;8692;52.164;7.558;2023-09-30T14:08:38;4.80;;;2.40;;
17153;SDS011;8692;52.164;7.558;2023-09-30T14:11:08;4.20;;;2.20;;
17153;SDS011;8692;52.164;7.558;2023-09-30T14:13:38;6.73;;;2.70;;
17153;SDS011;8692;52.164;7.558;2023-09-30T14:16:06;7.97;;;3.17;;
17153;SDS011;8692;52.164;7.558;2023-09-30T14:18:34;9.13;;;3.17;;
17153;SDS011;8692;52.164;7.558;2023-09-30T14:21:05;4.63;;;2.27;;
17153;SDS011;8692;52.164;7.558;2023-09-30T14:23:33;4.43;;;2.67;;
17153;SDS011;8692;52.164;7.558;2023-09-30T14:26:05;6.20;;;3.00;;
17153;SDS011;8692;52.164;7.558;2023-09-30T14:28:38;7.10;;;2.60;;
17153;SDS011;8692;52.164;7.558;2023-09-30T14:31:06;5.23;;;2.60;;
17153;SDS011;8692;52.164;7.558;2023-09-30T14:33:35;5.10;;;2.63;;
17153;SDS011;8692;52.164;7.558;2023-09-30T14:36:03;7.60;;;2.97;;
17153;SDS011;8692;52.164;7.558;2023-09-30T14:38:32;4.77;;;2.40;;
17153;SDS011;8692;52.164;7.558;2023-09-30T14:41:01;3.47;;;2.40;;
17153;SDS011;8692;52.164;7.558;2023-09-30T14:43:33;9.30;;;2.80;;
17153;SDS011;8692;52.164;7.558;2023-09-30T14:46:02;6.53;;;3.30;;
17153;SDS011;8692;52.164;7.558;2023-09-30T14:48:31;4.23;;;2.00;;
17153;SDS011;8692;52.164;7.558;2023-09-30T14:50:59;5.57;;;2.57;;
17153;SDS011;8692;52.164;7.558;2023-09-30T14:53:29;9.80;;;2.80;;
17153;SDS011;8692;52.164;7.558;2023-09-30T14:55:57;4.07;;;2.43;;
17153;SDS011;8692;52.164;7.558;2023-09-30T14:58:25;7.37;;;2.47;;
17153;SDS011;8692;52.164;7.558;2023-09-30T15:00:53;4.17;;;2.43;;
17153;SDS011;8692;52.164;7.558;2023-09-30T15:03:23;5.13;;;2.30;;
17153;SDS011;8692;52.164;7.558;2023-09-30T15:05:57;5.33;;;2.57;;
17153;SDS011;8692;52.164;7.558;2023-09-30T15:08:25;5.67;;;2.83;;
17153;SDS011;8692;52.164;7.558;2023-09-30T15:10:53;6.83;;;2.30;;
17153;SDS011;8692;52.164;7.558;2023-09-30T15:13:22;3.83;;;2.07;;
17153;SDS011;8692;52.164;7.558;2023-09-30T15:15:50;6.83;;;2.93;;
17153;SDS011;8692;52.164;7.558;2023-09-30T15:18:18;4.83;;;2.50;;
17153;SDS011;8692;52.164;7.558;2023-09-30T15:20:50;5.60;;;2.43;;